Time;durP1;ratioP1;P1;durP2;ratioP2;P2;SDS_P1;SDS_P2;PMS_P1;PMS_P2;Temp;Humidity;BMP_temperature;BMP_pressure;BME280_temperature;BME280_humidity;BME280_pressure;Samples;Min_cycle;Max_cycle;Signal;HPM_P1;HPM_P2
2021/06/25 00:00:57;;;;;;;8.03;5.70;;;22.50;99.90;;;;;;5018571;28;20196;-74
2021/06/25 00:03:23;;;;;;;6.80;5.70;;;22.50;99.90;;;;;;5022799;28;20246;-76
2021/06/25 00:05:50;;;;;;;8.23;6.07;;;22.50;99.90;;;;;;5022968;28;20228;-76
2021/06/25 00:08:16;;;;;;;7.87;6.17;;;22.50;99.90;;;;;;5020278;28;20196;-76
2021/06/25 00:10:43;;;;;;;8.82;5.63;;;22.50;99.90;;;;;;5018451;28;20214;-77
2021/06/25 00:13:09;;;;;;;7.13;6.17;;;22.60;99.90;;;;;;5007696;28;20204;-74
2021/06/25 00:15:35;;;;;;;7.35;6.60;;;22.60;99.90;;;;;;5004309;28;20295;-75
2021/06/25 00:18:02;;;;;;;7.67;6.20;;;22.60;99.90;;;;;;5004961;28;20711;-77
2021/06/25 00:20:29;;;;;;;6.60;6.00;;;22.70;99.90;;;;;;5023149;28;20199;-74
2021/06/25 00:22:56;;;;;;;7.80;6.33;;;22.70;99.90;;;;;;5007151;28;20258;-74
2021/06/25 00:25:24;;;;;;;6.43;5.77;;;22.70;99.90;;;;;;5021504;28;20188;-76
2021/06/25 00:27:50;;;;;;;8.30;6.30;;;22.70;99.90;;;;;;5021136;28;20676;-77
2021/06/25 00:30:17;;;;;;;6.67;6.07;;;22.70;99.90;;;;;;5017337;28;20200;-77
2021/06/25 00:32:45;;;;;;;8.43;5.83;;;22.80;99.90;;;;;;5016360;28;20192;-77
2021/06/25 00:35:13;;;;;;;6.82;6.00;;;22.70;99.90;;;;;;5035838;28;20220;-77
2021/06/25 00:37:39;;;;;;;7.27;5.80;;;22.80;99.90;;;;;;5036107;28;20216;-76
2021/06/25 00:40:07;;;;;;;6.63;5.93;;;22.70;99.90;;;;;;5003554;28;20199;-77
2021/06/25 00:42:34;;;;;;;6.47;5.87;;;22.80;99.90;;;;;;5002707;28;20200;-77
2021/06/25 00:45:13;;;;;;;6.88;6.28;;;22.80;99.90;;;;;;5021413;28;20671;-74
2021/06/25 00:47:42;;;;;;;6.63;6.00;;;22.80;99.90;;;;;;5037968;28;20283;-74
2021/06/25 00:50:09;;;;;;;6.83;6.13;;;22.80;99.90;;;;;;5023809;28;20200;-77
2021/06/25 00:52:35;;;;;;;6.93;6.20;;;22.80;99.90;;;;;;5005233;28;20212;-74
2021/06/25 00:55:03;;;;;;;6.60;6.00;;;22.90;99.90;;;;;;5023940;28;20213;-73
2021/06/25 00:57:30;;;;;;;6.30;5.70;;;22.90;99.90;;;;;;5013954;28;20188;-73
2021/06/25 00:59:56;;;;;;;7.87;6.03;;;22.90;99.90;;;;;;5019611;28;20187;-76
2021/06/25 01:02:23;;;;;;;6.40;5.80;;;22.90;99.90;;;;;;5022069;28;20196;-76
2021/06/25 01:04:51;;;;;;;6.82;6.13;;;22.90;99.90;;;;;;5016116;28;20259;-75
2021/06/25 01:07:18;;;;;;;8.03;6.13;;;22.90;99.90;;;;;;5004261;28;20251;-76
2021/06/25 01:09:45;;;;;;;7.60;6.05;;;22.90;99.90;;;;;;5036093;28;20207;-76
2021/06/25 01:12:13;;;;;;;6.13;5.53;;;22.90;99.90;;;;;;5033011;28;20203;-76
2021/06/25 01:14:40;;;;;;;7.13;5.60;;;22.90;99.90;;;;;;5017248;28;20264;-76
2021/06/25 01:17:07;;;;;;;5.60;4.67;;;22.90;99.90;;;;;;5019423;28;20199;-76
2021/06/25 01:19:34;;;;;;;9.45;5.15;;;22.90;99.90;;;;;;5019412;28;20947;-75
2021/06/25 01:22:01;;;;;;;6.37;5.60;;;22.90;99.90;;;;;;5017017;28;20172;-76
2021/06/25 01:24:27;;;;;;;6.37;5.77;;;22.90;99.90;;;;;;5020953;28;20196;-76
2021/06/25 01:26:53;;;;;;;6.07;5.57;;;22.90;99.90;;;;;;5015907;28;20197;-76
2021/06/25 01:29:20;;;;;;;6.37;5.10;;;22.80;99.90;;;;;;5028289;28;20399;-75
2021/06/25 01:31:47;;;;;;;5.77;5.20;;;22.80;99.90;;;;;;5020166;28;20278;-76
2021/06/25 01:34:13;;;;;;;5.87;5.07;;;22.70;99.90;;;;;;5020284;28;20224;-76
2021/06/25 01:36:40;;;;;;;7.63;5.00;;;22.70;99.90;;;;;;5002246;28;20232;-76
2021/06/25 01:39:06;;;;;;;9.13;5.20;;;22.70;99.90;;;;;;5020360;28;20200;-76
2021/06/25 01:41:39;;;;;;;6.37;5.27;;;22.70;99.90;;;;;;5017115;28;20197;-76
2021/06/25 01:44:07;;;;;;;6.03;5.43;;;22.60;99.90;;;;;;5018550;28;20279;-76
2021/06/25 01:46:34;;;;;;;5.88;5.28;;;22.50;99.90;;;;;;5023626;28;20648;-76
2021/06/25 01:49:01;;;;;;;6.23;5.50;;;22.50;99.90;;;;;;5023886;28;20286;-76
2021/06/25 01:51:27;;;;;;;6.07;5.50;;;22.50;99.90;;;;;;5025007;28;20204;-76
2021/06/25 01:53:54;;;;;;;6.87;5.00;;;22.40;99.90;;;;;;5017486;28;20239;-76
2021/06/25 01:56:21;;;;;;;7.40;5.33;;;22.30;99.90;;;;;;5021379;28;20207;-77
2021/06/25 01:58:47;;;;;;;6.60;5.60;;;22.20;99.90;;;;;;5037255;28;20282;-75
2021/06/25 02:01:17;;;;;;;6.80;5.07;;;22.10;99.90;;;;;;5037162;28;20184;-76
2021/06/25 02:03:48;;;;;;;6.93;5.90;;;22.10;99.90;;;;;;5009452;28;20598;-77
2021/06/25 02:06:15;;;;;;;6.00;5.40;;;22.10;99.90;;;;;;5017545;28;20208;-76
2021/06/25 02:08:43;;;;;;;8.77;5.57;;;22.10;99.90;;;;;;5021867;28;20188;-77
2021/06/25 02:11:12;;;;;;;10.83;5.40;;;22.10;99.90;;;;;;5025553;28;20193;-76
2021/06/25 02:13:39;;;;;;;6.07;5.50;;;22.00;99.90;;;;;;5038534;28;20690;-75
2021/06/25 02:16:06;;;;;;;5.37;4.87;;;22.00;99.90;;;;;;5008505;28;20189;-74
2021/06/25 02:18:32;;;;;;;6.13;5.53;;;22.00;99.90;;;;;;5022383;28;20197;-75
2021/06/25 02:20:58;;;;;;;5.77;5.27;;;22.00;99.90;;;;;;5021630;28;20197;-75
2021/06/25 02:23:25;;;;;;;8.27;4.93;;;22.00;99.90;;;;;;5036170;28;20242;-75
2021/06/25 02:25:52;;;;;;;6.30;5.00;;;21.90;99.90;;;;;;5022384;28;20196;-75
2021/06/25 02:28:19;;;;;;;6.20;5.30;;;21.90;99.90;;;;;;5022390;28;21005;-75
2021/06/25 02:30:45;;;;;;;6.13;4.90;;;21.80;99.90;;;;;;5007025;28;20200;-74
2021/06/25 02:33:12;;;;;;;5.60;5.10;;;21.80;99.90;;;;;;5022651;28;20658;-75
2021/06/25 02:35:38;;;;;;;5.97;5.43;;;21.80;99.90;;;;;;5021953;28;20697;-74
2021/06/25 02:38:04;;;;;;;7.50;5.30;;;21.70;99.90;;;;;;5039870;28;20204;-75
2021/06/25 02:40:31;;;;;;;6.20;5.57;;;21.70;99.90;;;;;;5023438;28;20180;-75
2021/06/25 02:42:57;;;;;;;6.13;5.50;;;21.60;99.90;;;;;;5018501;28;20648;-74
2021/06/25 02:45:25;;;;;;;6.83;5.30;;;21.60;99.90;;;;;;5023149;28;20192;-76
2021/06/25 02:47:51;;;;;;;9.23;5.60;;;21.60;99.90;;;;;;5020502;28;20324;-76
2021/06/25 02:50:17;;;;;;;6.83;5.43;;;21.60;99.90;;;;;;5023091;28;20188;-77
2021/06/25 02:52:44;;;;;;;6.60;5.30;;;21.60;99.90;;;;;;5006904;28;20292;-74
2021/06/25 02:55:13;;;;;;;10.67;6.43;;;21.60;99.90;;;;;;5022297;28;20215;-76
2021/06/25 02:57:40;;;;;;;9.90;6.00;;;21.60;99.90;;;;;;5022799;28;20192;-74
2021/06/25 03:00:11;;;;;;;7.27;5.40;;;21.60;99.90;;;;;;5007404;28;20299;-75
2021/06/25 03:02:38;;;;;;;8.57;6.60;;;21.60;99.90;;;;;;5001421;28;20187;-74
2021/06/25 03:05:07;;;;;;;6.10;5.50;;;21.60;99.90;;;;;;5004690;28;20866;-74
2021/06/25 03:07:34;;;;;;;6.77;5.50;;;21.70;99.90;;;;;;5019690;28;20617;-74
2021/06/25 03:10:00;;;;;;;6.47;5.60;;;21.70;99.90;;;;;;5038413;28;20266;-75
2021/06/25 03:12:26;;;;;;;7.27;5.80;;;21.70;99.90;;;;;;5022251;28;20215;-74
2021/06/25 03:14:53;;;;;;;6.93;5.57;;;21.80;99.90;;;;;;5022578;28;20227;-75
2021/06/25 03:17:19;;;;;;;10.17;5.90;;;21.80;99.90;;;;;;5035997;28;20343;-74
2021/06/25 03:19:45;;;;;;;8.13;5.93;;;21.80;99.90;;;;;;5037934;28;20862;-75
2021/06/25 03:22:12;;;;;;;9.60;5.50;;;21.80;99.90;;;;;;5005088;28;20669;-74
2021/06/25 03:24:38;;;;;;;7.27;5.53;;;21.80;99.90;;;;;;5007410;28;20202;-74
2021/06/25 03:27:05;;;;;;;6.30;5.70;;;21.80;99.90;;;;;;5021751;28;20199;-74
2021/06/25 03:29:32;;;;;;;7.07;5.23;;;21.80;99.90;;;;;;5021348;28;20851;-74
2021/06/25 03:31:58;;;;;;;6.40;5.80;;;21.80;99.90;;;;;;5037188;28;20200;-74
2021/06/25 03:34:25;;;;;;;10.20;6.43;;;21.80;99.90;;;;;;5020211;28;20260;-74
2021/06/25 03:36:51;;;;;;;7.50;5.67;;;21.80;99.90;;;;;;5020730;28;20279;-74
2021/06/25 03:39:18;;;;;;;7.57;6.03;;;21.80;99.90;;;;;;5022531;28;20219;-73
2021/06/25 03:41:44;;;;;;;6.80;5.90;;;21.80;99.90;;;;;;5022875;28;20294;-74
2021/06/25 03:44:11;;;;;;;7.37;5.93;;;21.80;99.90;;;;;;5010494;28;20188;-76
2021/06/25 03:46:37;;;;;;;6.80;5.67;;;21.90;99.90;;;;;;5038653;28;20231;-76
2021/06/25 03:49:05;;;;;;;7.50;5.47;;;21.90;99.90;;;;;;5018407;28;20280;-74
2021/06/25 03:51:32;;;;;;;6.17;5.57;;;21.90;99.90;;;;;;5022195;28;20234;-76
2021/06/25 03:53:58;;;;;;;9.03;5.40;;;21.90;99.90;;;;;;5020796;28;20326;-73
2021/06/25 03:56:25;;;;;;;8.43;5.77;;;21.90;99.90;;;;;;5024279;28;20198;-76
2021/06/25 03:58:51;;;;;;;9.77;5.20;;;22.00;99.90;;;;;;5021723;28;20195;-76
2021/06/25 04:01:20;;;;;;;6.60;5.90;;;22.00;99.90;;;;;;5024002;28;20664;-76
2021/06/25 04:03:46;;;;;;;7.17;5.33;;;22.00;99.90;;;;;;5004366;28;20207;-76
2021/06/25 04:06:13;;;;;;;5.77;5.27;;;22.00;99.90;;;;;;5021533;28;20214;-74
2021/06/25 04:08:39;;;;;;;6.20;5.60;;;22.00;99.90;;;;;;5022295;28;20596;-74
2021/06/25 04:11:06;;;;;;;7.10;5.90;;;22.10;99.90;;;;;;5020437;28;20192;-76
2021/06/25 04:13:34;;;;;;;7.93;5.77;;;22.10;99.90;;;;;;5022478;28;20200;-75
2021/06/25 04:16:01;;;;;;;5.27;4.83;;;22.10;99.90;;;;;;5027465;28;20697;-75
2021/06/25 04:18:28;;;;;;;5.87;5.37;;;22.20;99.90;;;;;;5035563;28;20188;-75
2021/06/25 04:20:56;;;;;;;6.20;5.30;;;22.20;99.90;;;;;;5021484;28;20192;-76
2021/06/25 04:23:23;;;;;;;6.10;5.50;;;22.20;99.90;;;;;;5018648;28;20205;-75
2021/06/25 04:25:49;;;;;;;5.77;4.90;;;22.20;99.90;;;;;;5022050;28;20716;-74
2021/06/25 04:28:23;;;;;;;5.83;5.20;;;22.30;99.90;;;;;;5116795;27;20940;-76
2021/06/25 04:30:50;;;;;;;5.90;5.03;;;22.30;99.90;;;;;;5064975;28;20186;-78
2021/06/25 04:33:17;;;;;;;6.37;5.50;;;22.30;99.90;;;;;;5063250;28;20190;-77
2021/06/25 04:35:47;;;;;;;6.27;5.13;;;22.40;99.90;;;;;;5080294;28;20189;-77
2021/06/25 04:38:13;;;;;;;8.33;5.87;;;22.50;99.90;;;;;;5082890;28;20196;-76
2021/06/25 04:40:43;;;;;;;8.05;5.20;;;22.40;99.90;;;;;;5063786;28;20626;-75
2021/06/25 04:43:12;;;;;;;5.07;4.67;;;22.50;99.90;;;;;;5064828;28;20294;-78
2021/06/25 04:45:40;;;;;;;6.70;4.97;;;22.60;99.90;;;;;;5062691;28;20202;-76
2021/06/25 04:48:10;;;;;;;6.23;5.20;;;22.60;99.90;;;;;;5065835;28;20206;-77
2021/06/25 04:50:37;;;;;;;9.70;5.43;;;22.60;99.90;;;;;;5061919;28;20232;-76
2021/06/25 04:53:04;;;;;;;7.68;5.30;;;22.70;99.90;;;;;;5089718;28;20209;-77
2021/06/25 04:55:31;;;;;;;5.83;5.13;;;22.80;99.90;;;;;;5079303;28;20240;-77
2021/06/25 04:57:57;;;;;;;5.80;5.10;;;22.90;99.90;;;;;;5080387;28;20187;-75
2021/06/25 05:00:24;;;;;;;7.50;4.90;;;22.90;99.90;;;;;;5081527;28;20226;-76
2021/06/25 05:02:51;;;;;;;6.13;5.23;;;22.90;99.90;;;;;;5077784;28;20216;-77
2021/06/25 05:05:18;;;;;;;8.13;6.00;;;23.00;99.90;;;;;;5095364;28;20206;-77
2021/06/25 05:07:45;;;;;;;12.25;5.38;;;23.10;99.90;;;;;;5082177;28;20218;-77
2021/06/25 05:10:13;;;;;;;6.43;5.70;;;23.10;99.90;;;;;;5081083;28;20568;-79
2021/06/25 05:12:39;;;;;;;6.85;6.15;;;23.10;99.90;;;;;;5079557;28;20182;-77
2021/06/25 05:15:09;;;;;;;9.70;6.03;;;23.20;99.90;;;;;;5076119;28;20194;-75
2021/06/25 05:17:35;;;;;;;12.57;6.40;;;23.20;99.90;;;;;;5075570;28;20294;-74
2021/06/25 05:20:04;;;;;;;9.60;6.47;;;23.50;99.90;;;;;;5064045;28;20891;-76
2021/06/25 05:22:31;;;;;;;8.20;6.22;;;23.60;99.90;;;;;;5060149;28;20186;-78
2021/06/25 05:24:58;;;;;;;8.10;6.23;;;23.80;99.90;;;;;;5093828;28;20244;-77
2021/06/25 05:27:25;;;;;;;12.40;6.10;;;23.70;99.90;;;;;;5062441;28;20217;-76
2021/06/25 05:29:51;;;;;;;7.28;5.90;;;23.60;99.90;;;;;;5090979;28;20252;-77
2021/06/25 05:32:18;;;;;;;9.32;5.65;;;23.70;99.90;;;;;;5072814;28;20197;-76
2021/06/25 05:34:48;;;;;;;7.47;5.95;;;23.80;99.90;;;;;;5058443;28;20210;-76
2021/06/25 05:37:15;;;;;;;7.50;5.47;;;23.70;99.90;;;;;;5073210;28;20202;-77
2021/06/25 05:39:42;;;;;;;7.53;5.60;;;23.60;99.90;;;;;;5079441;28;20265;-75
2021/06/25 05:42:09;;;;;;;12.57;6.15;;;23.70;99.90;;;;;;5079536;28;20192;-75
2021/06/25 05:44:36;;;;;;;8.15;6.18;;;23.80;99.90;;;;;;5065949;28;20274;-76
2021/06/25 05:47:04;;;;;;;7.20;5.60;;;23.80;99.90;;;;;;5045257;28;20662;-75
2021/06/25 05:49:30;;;;;;;9.40;5.90;;;23.80;99.90;;;;;;5078882;28;20925;-76
2021/06/25 05:51:57;;;;;;;7.25;5.80;;;23.70;99.90;;;;;;5062774;28;20207;-76
2021/06/25 05:54:23;;;;;;;6.70;5.75;;;23.70;99.90;;;;;;5083259;28;20187;-77
2021/06/25 05:56:50;;;;;;;8.13;5.50;;;23.90;99.90;;;;;;5062465;28;20273;-75
2021/06/25 05:59:18;;;;;;;10.30;6.07;;;24.00;99.90;;;;;;5080158;28;20195;-76
2021/06/25 06:01:44;;;;;;;7.63;6.03;;;24.10;99.90;;;;;;5059884;28;20195;-76
2021/06/25 06:04:10;;;;;;;6.88;6.10;;;24.40;99.90;;;;;;5056634;28;20205;-75
2021/06/25 06:06:37;;;;;;;8.98;6.00;;;24.50;99.90;;;;;;5063412;28;20722;-76
2021/06/25 06:09:04;;;;;;;7.03;6.07;;;24.30;99.90;;;;;;5077306;28;20223;-77
2021/06/25 06:11:30;;;;;;;10.00;6.00;;;24.50;99.90;;;;;;5060669;28;20195;-76
2021/06/25 06:13:57;;;;;;;9.43;5.65;;;24.90;99.90;;;;;;5076378;28;20250;-76
2021/06/25 06:16:24;;;;;;;7.45;5.75;;;25.10;99.90;;;;;;5064706;28;20190;-78
2021/06/25 06:18:50;;;;;;;6.18;5.25;;;25.10;99.90;;;;;;5065361;28;20182;-77
2021/06/25 06:21:23;;;;;;;7.30;5.95;;;25.10;99.90;;;;;;5064922;28;20195;-73
2021/06/25 06:32:23;;;;;;;12.32;5.70;;;25.50;99.90;;;;;;5061066;28;20179;-77
2021/06/25 06:34:49;;;;;;;6.05;5.35;;;25.60;99.90;;;;;;5076690;28;20197;-77
2021/06/25 06:37:21;;;;;;;8.23;5.50;;;25.60;99.90;;;;;;5061942;28;20194;-79
2021/06/25 06:39:48;;;;;;;10.73;5.72;;;25.60;99.90;;;;;;5081116;28;20187;-74
2021/06/25 06:42:14;;;;;;;7.78;5.35;;;25.40;99.90;;;;;;5066651;28;20260;-76
2021/06/25 06:44:41;;;;;;;7.18;5.40;;;25.50;99.90;;;;;;5063372;28;20183;-76
2021/06/25 06:47:07;;;;;;;7.13;5.05;;;25.60;99.90;;;;;;5059881;28;20195;-75
2021/06/25 06:49:34;;;;;;;8.45;5.03;;;26.00;99.90;;;;;;5047006;28;20195;-78
2021/06/25 06:52:03;;;;;;;6.35;5.18;;;26.00;99.90;;;;;;5050505;28;20293;-74
2021/06/25 06:54:29;;;;;;;9.00;5.25;;;26.30;99.90;;;;;;5062514;28;20233;-75
2021/06/25 06:56:56;;;;;;;6.35;4.80;;;26.50;99.90;;;;;;5059532;28;20191;-77
2021/06/25 06:59:23;;;;;;;5.22;4.65;;;26.40;99.90;;;;;;5076151;28;20188;-75
2021/06/25 07:01:49;;;;;;;7.00;4.32;;;26.50;99.90;;;;;;5060884;28;20186;-77
2021/06/25 07:04:16;;;;;;;7.65;5.00;;;26.60;99.90;;;;;;5058323;28;20218;-77
2021/06/25 07:06:42;;;;;;;11.13;4.93;;;26.60;99.90;;;;;;5053113;28;20207;-77
2021/06/25 07:09:08;;;;;;;11.20;5.18;;;26.60;99.90;;;;;;5057227;28;20811;-78
2021/06/25 07:11:35;;;;;;;9.27;5.20;;;26.80;99.90;;;;;;5060543;28;20219;-78
2021/06/25 07:14:02;;;;;;;9.52;5.28;;;26.80;99.90;;;;;;5058591;28;20194;-77
2021/06/25 07:16:30;;;;;;;8.32;4.75;;;26.70;99.90;;;;;;5060113;28;20782;-77
2021/06/25 07:18:57;;;;;;;8.50;4.80;;;26.70;99.90;;;;;;5060630;28;20237;-76
2021/06/25 07:21:23;;;;;;;16.15;4.65;;;26.80;99.90;;;;;;5059304;28;20221;-76
2021/06/25 07:23:49;;;;;;;8.85;4.20;;;26.90;99.90;;;;;;5064553;28;20201;-77
2021/06/25 07:26:17;;;;;;;11.50;5.22;;;27.00;99.90;;;;;;5059513;28;20195;-77
2021/06/25 07:28:44;;;;;;;5.80;4.55;;;27.10;99.90;;;;;;5076394;28;20563;-77
2021/06/25 07:31:13;;;;;;;10.38;4.60;;;27.20;99.90;;;;;;5078073;28;20179;-77
2021/06/25 07:33:39;;;;;;;9.23;4.50;;;27.20;99.90;;;;;;5079169;28;20657;-77
2021/06/25 07:36:08;;;;;;;6.00;4.55;;;27.20;99.90;;;;;;5061654;28;20188;-78
2021/06/25 07:38:34;;;;;;;8.80;4.88;;;27.30;99.90;;;;;;5063014;28;20662;-78
2021/06/25 07:41:01;;;;;;;6.88;4.43;;;27.20;99.90;;;;;;5068359;28;20664;-77
2021/06/25 07:43:27;;;;;;;8.35;5.00;;;27.30;99.90;;;;;;5061953;28;20185;-78
2021/06/25 07:45:54;;;;;;;8.40;4.70;;;27.30;99.90;;;;;;5074796;28;20278;-78
2021/06/25 07:48:20;;;;;;;6.60;4.47;;;27.20;99.90;;;;;;5059351;28;20234;-77
2021/06/25 07:50:47;;;;;;;7.82;4.72;;;27.40;99.90;;;;;;5060456;28;20590;-78
2021/06/25 07:53:15;;;;;;;4.78;4.28;;;27.50;99.90;;;;;;5043138;28;20585;-78
2021/06/25 07:55:44;;;;;;;8.20;4.60;;;27.70;99.90;;;;;;5060794;28;20262;-78
2021/06/25 07:58:16;;;;;;;8.93;4.30;;;27.60;99.90;;;;;;5074739;28;20215;-79
2021/06/25 08:00:43;;;;;;;9.18;4.30;;;27.60;99.90;;;;;;5058856;28;20195;-77
2021/06/25 08:03:13;;;;;;;9.43;4.55;;;27.70;99.90;;;;;;5062852;28;20655;-77
2021/06/25 08:05:40;;;;;;;10.60;4.25;;;27.90;99.90;;;;;;5075215;28;20211;-78
2021/06/25 08:08:07;;;;;;;6.50;4.32;;;27.90;99.90;;;;;;5059862;28;20263;-77
2021/06/25 08:10:34;;;;;;;8.15;4.60;;;27.90;99.90;;;;;;5059663;28;20190;-78
2021/06/25 08:13:01;;;;;;;6.57;4.50;;;28.10;99.90;;;;;;5064771;28;20181;-77
2021/06/25 08:15:27;;;;;;;9.43;4.30;;;28.20;99.90;;;;;;5061930;28;20218;-77
2021/06/25 08:17:53;;;;;;;7.90;4.28;;;28.10;99.90;;;;;;5062938;28;20539;-75
2021/06/25 08:20:20;;;;;;;48.00;5.53;;;28.30;99.90;;;;;;5056447;28;20188;-76
2021/06/25 08:22:47;;;;;;;5.00;4.40;;;28.10;99.90;;;;;;5059871;28;20191;-77
2021/06/25 08:25:13;;;;;;;8.75;4.68;;;28.40;99.90;;;;;;5060900;28;20272;-76
2021/06/25 08:27:39;;;;;;;6.03;4.30;;;28.40;99.90;;;;;;5061060;28;20215;-78
2021/06/25 08:30:07;;;;;;;8.20;4.82;;;28.30;99.90;;;;;;5059933;28;20225;-77
2021/06/25 08:32:34;;;;;;;6.47;4.68;;;28.70;99.90;;;;;;5078719;28;20183;-76
2021/06/25 08:35:00;;;;;;;7.18;4.75;;;28.60;99.90;;;;;;5061935;28;20247;-75
2021/06/25 08:37:27;;;;;;;8.57;4.63;;;28.70;99.90;;;;;;5059437;28;20187;-78
2021/06/25 08:39:53;;;;;;;9.02;4.90;;;28.70;99.90;;;;;;5060803;28;20897;-78
2021/06/25 08:42:20;;;;;;;6.20;4.32;;;28.80;99.90;;;;;;5063535;28;20651;-77
2021/06/25 08:44:46;;;;;;;5.80;4.43;;;29.00;99.90;;;;;;5064211;28;20955;-75
2021/06/25 08:47:13;;;;;;;4.60;4.00;;;28.70;99.90;;;;;;5063812;28;20210;-78
2021/06/25 08:49:48;;;;;;;16.02;5.00;;;29.00;99.90;;;;;;5060719;28;20278;-78
2021/06/25 08:52:14;;;;;;;12.55;4.70;;;28.70;99.90;;;;;;5075872;28;20206;-77
2021/06/25 08:54:41;;;;;;;5.03;4.25;;;29.00;99.90;;;;;;5041922;28;20192;-78
2021/06/25 08:57:09;;;;;;;4.63;4.18;;;29.30;99.90;;;;;;5060787;28;20332;-77
2021/06/25 08:59:38;;;;;;;6.10;4.07;;;29.30;99.90;;;;;;5061868;28;20678;-78
2021/06/25 09:02:04;;;;;;;7.20;4.72;;;29.20;99.90;;;;;;5058827;28;20710;-78
2021/06/25 09:04:43;;;;;;;4.35;3.90;;;29.40;99.90;;;;;;5076415;28;20191;-78
2021/06/25 09:07:11;;;;;;;7.18;4.70;;;29.50;99.90;;;;;;5060358;28;20209;-77
2021/06/25 09:09:47;;;;;;;21.17;5.10;;;29.50;99.90;;;;;;5056685;28;20195;-78
2021/06/25 09:12:23;;;;;;;11.88;4.20;;;29.60;99.90;;;;;;5059745;28;20269;-78
2021/06/25 09:15:13;;;;;;;6.93;4.93;;;29.80;99.90;;;;;;5059466;28;20186;-77
2021/06/25 09:18:04;;;;;;;7.00;4.88;;;29.80;99.90;;;;;;5065917;28;20185;-80
2021/06/25 09:20:49;;;;;;;8.60;5.20;;;29.60;99.90;;;;;;5075172;28;20269;-80
2021/06/25 09:23:39;;;;;;;9.32;5.10;;;29.70;99.90;;;;;;5068228;28;20218;-78
2021/06/25 09:26:11;;;;;;;11.90;5.30;;;29.80;99.90;;;;;;5061629;28;21100;-77
2021/06/25 09:28:41;;;;;;;13.07;5.40;;;29.70;99.90;;;;;;5076142;28;20252;-79
2021/06/25 09:31:15;;;;;;;11.57;6.03;;;29.60;99.90;;;;;;5064001;28;20283;-76
2021/06/25 09:33:56;;;;;;;9.55;5.22;;;29.60;99.90;;;;;;5062686;28;20187;-77
2021/06/25 09:36:31;;;;;;;11.00;5.07;;;29.50;99.90;;;;;;5047097;28;20236;-76
2021/06/25 09:39:12;;;;;;;12.85;5.47;;;29.60;99.90;;;;;;5077604;28;20187;-76
2021/06/25 09:41:42;;;;;;;12.68;5.57;;;29.90;99.90;;;;;;5060139;28;20294;-77
2021/06/25 09:44:15;;;;;;;8.05;4.88;;;29.80;99.90;;;;;;5062882;28;20186;-75
2021/06/25 09:46:44;;;;;;;10.90;5.20;;;29.60;99.90;;;;;;5058729;28;20199;-77
2021/06/25 09:49:13;;;;;;;8.77;5.45;;;29.70;99.90;;;;;;5064175;28;20598;-76
2021/06/25 09:52:02;;;;;;;13.50;5.68;;;29.60;99.90;;;;;;5044555;28;20199;-76
2021/06/25 09:54:30;;;;;;;12.05;5.75;;;29.80;99.90;;;;;;5060893;28;20183;-77
2021/06/25 09:57:11;;;;;;;10.52;4.95;;;29.70;99.90;;;;;;5065185;28;21010;-76
2021/06/25 10:02:20;;;;;;;8.90;5.20;;;29.70;99.90;;;;;;5074197;28;20252;-79
2021/06/25 10:05:02;;;;;;;8.70;5.00;;;29.60;99.90;;;;;;5061963;28;20188;-75
2021/06/25 10:07:31;;;;;;;10.32;4.85;;;29.90;99.90;;;;;;5059705;28;21142;-76
2021/06/25 10:10:06;;;;;;;11.55;5.28;;;29.90;99.90;;;;;;5061322;28;20194;-76
2021/06/25 10:12:37;;;;;;;8.80;5.00;;;30.00;99.90;;;;;;5073344;28;20193;-76
2021/06/25 10:15:05;;;;;;;10.02;5.20;;;30.00;99.90;;;;;;5060842;28;20194;-79
2021/06/25 10:17:35;;;;;;;10.15;4.80;;;30.50;99.90;;;;;;5073308;28;20264;-76
2021/06/25 10:20:12;;;;;;;9.85;5.40;;;30.40;99.90;;;;;;5050252;28;20692;-76
2021/06/25 10:22:47;;;;;;;8.00;4.80;;;30.30;99.90;;;;;;5058725;28;20178;-77
2021/06/25 10:25:15;;;;;;;11.93;4.70;;;30.40;99.90;;;;;;5058312;28;20194;-76
2021/06/25 10:27:49;;;;;;;9.05;5.18;;;30.30;99.90;;;;;;5049750;28;20242;-76
2021/06/25 10:30:16;;;;;;;15.10;4.60;;;30.50;99.90;;;;;;5049427;28;20183;-76
2021/06/25 10:32:45;;;;;;;9.50;5.15;;;30.70;99.90;;;;;;5067843;28;20258;-76
2021/06/25 10:35:13;;;;;;;13.65;5.57;;;30.40;99.90;;;;;;5063106;28;20643;-76
2021/06/25 10:37:46;;;;;;;13.90;4.78;;;30.60;99.90;;;;;;5061683;28;20268;-77
2021/06/25 10:40:27;;;;;;;15.15;5.03;;;30.80;99.90;;;;;;5064226;28;20665;-77
2021/06/25 10:42:56;;;;;;;8.52;4.68;;;30.80;99.90;;;;;;5053823;28;20218;-77
2021/06/25 10:45:43;;;;;;;10.20;4.75;;;30.80;99.90;;;;;;5053011;28;20187;-78
2021/06/25 10:48:10;;;;;;;15.32;4.25;;;30.80;99.90;;;;;;5080077;28;20286;-79
2021/06/25 10:50:37;;;;;;;9.13;4.80;;;30.90;99.90;;;;;;5066233;28;20685;-76
2021/06/25 10:53:22;;;;;;;11.43;4.63;;;30.90;99.90;;;;;;5060311;28;20559;-78
2021/06/25 10:56:05;;;;;;;10.40;4.45;;;31.00;99.90;;;;;;5079928;28;20190;-78
2021/06/25 10:58:34;;;;;;;14.15;5.63;;;31.10;99.90;;;;;;5068222;28;20190;-80
2021/06/25 11:01:02;;;;;;;11.23;4.65;;;31.00;99.90;;;;;;5060134;28;20178;-79
2021/06/25 11:03:37;;;;;;;9.57;5.05;;;31.00;99.90;;;;;;5046041;28;20225;-78
2021/06/25 11:06:28;;;;;;;8.43;4.20;;;31.10;99.90;;;;;;5062438;28;20530;-80
2021/06/25 11:09:21;;;;;;;10.80;4.50;;;31.10;99.90;;;;;;5041011;28;20306;-80
2021/06/25 11:11:48;;;;;;;8.30;4.10;;;31.10;99.90;;;;;;5055740;28;20226;-79
2021/06/25 11:14:29;;;;;;;7.65;4.35;;;30.90;99.90;;;;;;5052459;28;20196;-78
2021/06/25 11:16:56;;;;;;;14.23;4.65;;;31.10;99.90;;;;;;5066714;28;20179;-78
2021/06/25 11:19:40;;;;;;;9.20;4.65;;;31.00;99.90;;;;;;5063443;28;20881;-80
2021/06/25 11:22:39;;;;;;;7.38;3.95;;;31.20;99.90;;;;;;5059648;28;20178;-77
2021/06/25 11:25:15;;;;;;;7.78;4.00;;;31.20;99.90;;;;;;5063844;28;20198;-79
2021/06/25 11:28:26;;;;;;;6.70;3.72;;;31.10;99.90;;;;;;5080885;28;20238;-79
2021/06/25 11:31:20;;;;;;;7.97;4.25;;;31.00;99.90;;;;;;5063265;28;20274;-78
2021/06/25 11:33:50;;;;;;;10.00;4.90;;;31.30;99.90;;;;;;5066522;28;20419;-78
2021/06/25 11:36:52;;;;;;;7.10;4.05;;;31.30;99.90;;;;;;5065436;28;20571;-78
2021/06/25 11:39:37;;;;;;;13.10;4.70;;;31.40;99.90;;;;;;5075660;28;20254;-78
2021/06/25 11:42:11;;;;;;;9.18;3.85;;;31.10;99.90;;;;;;5065179;28;20270;-78
2021/06/25 11:44:41;;;;;;;8.77;5.03;;;31.20;99.90;;;;;;5063745;28;20211;-79
2021/06/25 11:47:24;;;;;;;10.30;4.80;;;31.30;99.90;;;;;;5065107;28;20860;-78
2021/06/25 11:52:26;;;;;;;9.10;4.55;;;31.30;99.90;;;;;;5064967;28;20647;-78
2021/06/25 11:55:01;;;;;;;6.45;4.15;;;31.30;99.90;;;;;;5048632;28;20189;-78
2021/06/25 11:57:36;;;;;;;11.30;5.38;;;31.10;99.90;;;;;;5079526;28;20542;-76
2021/06/25 12:00:21;;;;;;;13.52;4.75;;;30.90;99.90;;;;;;5061836;28;20182;-76
2021/06/25 12:02:57;;;;;;;13.88;4.60;;;31.20;99.90;;;;;;5064770;28;20178;-76
2021/06/25 12:05:35;;;;;;;12.07;5.05;;;31.20;99.90;;;;;;5060135;28;20213;-76
2021/06/25 12:08:04;;;;;;;10.02;4.35;;;31.30;99.90;;;;;;5062432;28;20209;-76
2021/06/25 12:10:31;;;;;;;8.38;4.65;;;31.30;99.90;;;;;;5065036;28;20187;-77
2021/06/25 12:13:02;;;;;;;7.75;4.13;;;31.40;99.90;;;;;;5069029;28;20178;-76
2021/06/25 12:15:29;;;;;;;10.50;4.15;;;31.40;99.90;;;;;;5063557;28;20662;-76
2021/06/25 12:17:58;;;;;;;8.35;4.80;;;31.40;99.90;;;;;;5078036;28;20192;-77
2021/06/25 12:20:32;;;;;;;11.13;4.97;;;31.30;99.90;;;;;;5062124;28;20194;-77
2021/06/25 12:23:01;;;;;;;12.68;4.20;;;31.50;99.90;;;;;;5047550;28;20186;-76
2021/06/25 12:25:41;;;;;;;10.73;4.60;;;31.30;99.90;;;;;;5047289;28;20772;-76
2021/06/25 12:28:20;;;;;;;15.60;4.65;;;31.40;99.90;;;;;;5042998;28;20206;-78
2021/06/25 12:30:54;;;;;;;7.45;4.05;;;31.40;99.90;;;;;;5066999;28;20240;-75
2021/06/25 12:33:29;;;;;;;9.10;3.92;;;31.30;99.90;;;;;;5048459;28;20197;-76
2021/06/25 12:35:57;;;;;;;12.05;3.95;;;31.30;99.90;;;;;;5042246;28;20190;-76
2021/06/25 12:38:27;;;;;;;10.32;4.20;;;31.50;99.90;;;;;;5061588;28;20566;-79
2021/06/25 12:40:55;;;;;;;6.88;4.32;;;31.50;99.90;;;;;;5058414;28;20186;-79
2021/06/25 12:43:29;;;;;;;11.57;4.35;;;31.60;99.90;;;;;;5064721;28;20186;-78
2021/06/25 12:46:05;;;;;;;6.30;3.97;;;31.40;99.90;;;;;;5063778;28;20191;-78
2021/06/25 12:48:37;;;;;;;9.02;4.10;;;31.40;99.90;;;;;;5066993;28;20202;-78
2021/06/25 12:51:09;;;;;;;11.68;4.10;;;31.50;99.90;;;;;;5067063;28;20190;-80
2021/06/25 12:53:39;;;;;;;6.43;3.72;;;31.30;99.90;;;;;;5065743;28;20651;-79
2021/06/25 12:56:16;;;;;;;9.85;3.72;;;31.60;99.90;;;;;;5064218;28;20185;-78
2021/06/25 12:58:56;;;;;;;8.20;3.70;;;31.60;99.90;;;;;;5048148;28;20811;-79
2021/06/25 13:01:36;;;;;;;6.93;3.85;;;31.30;99.90;;;;;;5069444;28;20205;-78
2021/06/25 13:04:03;;;;;;;6.15;3.75;;;31.50;99.90;;;;;;5083254;28;20178;-79
2021/06/25 13:06:37;;;;;;;8.70;3.53;;;31.30;99.90;;;;;;5067130;28;20186;-78
2021/06/25 13:09:19;;;;;;;7.18;3.72;;;31.40;99.90;;;;;;5066528;28;20222;-79
2021/06/25 13:11:47;;;;;;;9.63;4.25;;;31.60;99.90;;;;;;5069784;28;20178;-79